Time;durP1;ratioP1;P1;durP2;ratioP2;P2;SDS_P1;SDS_P2;PMS_P1;PMS_P2;Temp;Humidity;BMP_temperature;BMP_pressure;BME280_temperature;BME280_humidity;BME280_pressure;Samples;Min_cycle;Max_cycle;Signal;HPM_P1;HPM_P2
2022/08/07 00:00:15;;;;;;;;;2.67;2.67;;;;;;;;5101461;27;45261;-74
2022/08/07 00:02:40;;;;;;;;;3.00;3.00;;;;;;;;5101611;27;45151;-75
2022/08/07 00:05:05;;;;;;;;;4.00;3.00;;;;;;;;5101144;27;46354;-73
2022/08/07 00:07:30;;;;;;;;;5.00;5.00;;;;;;;;5101070;27;45416;-73
2022/08/07 00:09:56;;;;;;;;;5.00;5.00;;;;;;;;5101419;27;45434;-74
2022/08/07 00:12:21;;;;;;;;;4.00;4.00;;;;;;;;5101642;27;45307;-75
2022/08/07 00:14:46;;;;;;;;;6.33;4.00;;;;;;;;5101087;27;47172;-74
2022/08/07 00:17:11;;;;;;;;;5.00;4.67;;;;;;;;5101038;27;45209;-73
2022/08/07 00:19:37;;;;;;;;;3.67;3.67;;;;;;;;5101214;27;45213;-74
2022/08/07 00:22:02;;;;;;;;;4.33;3.00;;;;;;;;5101360;27;45228;-75
2022/08/07 00:24:27;;;;;;;;;5.00;5.00;;;;;;;;5101039;27;46424;-75
2022/08/07 00:26:53;;;;;;;;;5.00;5.00;;;;;;;;5100705;27;45233;-74
2022/08/07 00:29:21;;;;;;;;;5.67;4.33;;;;;;;;5101114;27;45402;-73
2022/08/07 00:31:46;;;;;;;;;5.67;5.67;;;;;;;;5101082;27;45451;-73
2022/08/07 00:34:11;;;;;;;;;6.33;6.00;;;;;;;;5100800;27;46082;-72
2022/08/07 00:36:37;;;;;;;;;6.67;5.00;;;;;;;;5100759;27;45379;-74
2022/08/07 00:39:02;;;;;;;;;4.33;3.00;;;;;;;;5100672;27;45531;-74
2022/08/07 00:41:30;;;;;;;;;8.33;7.00;;;;;;;;5101072;27;45377;-75
2022/08/07 00:43:55;;;;;;;;;5.67;5.67;;;;;;;;5100405;27;46566;-72
2022/08/07 00:46:21;;;;;;;;;5.67;5.00;;;;;;;;5100353;27;45255;-74
2022/08/07 00:48:46;;;;;;;;;5.33;5.33;;;;;;;;5100899;27;45205;-73
2022/08/07 00:51:12;;;;;;;;;7.00;5.33;;;;;;;;5100493;27;45514;-75
2022/08/07 00:53:37;;;;;;;;;6.67;6.67;;;;;;;;5100307;27;46474;-73
2022/08/07 00:56:03;;;;;;;;;6.00;2.67;;;;;;;;5100513;27;45293;-74
2022/08/07 00:58:28;;;;;;;;;6.00;6.00;;;;;;;;5081126;27;45396;-73
2022/08/07 01:00:53;;;;;;;;;7.67;5.00;;;;;;;;5100882;27;45222;-74
2022/08/07 01:03:18;;;;;;;;;5.33;5.33;;;;;;;;5100255;27;47180;-73
2022/08/07 01:05:44;;;;;;;;;8.33;6.00;;;;;;;;5100326;27;45328;-74
2022/08/07 01:08:10;;;;;;;;;5.00;5.00;;;;;;;;5100439;27;45406;-74
2022/08/07 01:10:35;;;;;;;;;4.33;4.33;;;;;;;;5100404;27;45549;-74
2022/08/07 01:13:00;;;;;;;;;7.00;5.33;;;;;;;;5100088;27;46443;-73
2022/08/07 01:15:26;;;;;;;;;6.00;6.00;;;;;;;;5100001;27;45394;-73
2022/08/07 01:17:51;;;;;;;;;6.33;6.00;;;;;;;;5100431;27;45417;-74
2022/08/07 01:20:20;;;;;;;;;5.00;5.00;;;;;;;;5100383;27;45346;-74
2022/08/07 01:22:46;;;;;;;;;7.00;5.00;;;;;;;;5081435;27;46614;-76
2022/08/07 01:25:11;;;;;;;;;5.67;5.00;;;;;;;;5100046;27;45482;-73
2022/08/07 01:27:37;;;;;;;;;6.00;6.00;;;;;;;;5099965;27;45321;-74
2022/08/07 01:30:03;;;;;;;;;7.00;5.00;;;;;;;;5100368;27;45360;-73
2022/08/07 01:32:28;;;;;;;;;5.33;5.00;;;;;;;;5099760;27;47518;-74
2022/08/07 01:34:54;;;;;;;;;5.00;5.00;;;;;;;;5099894;27;45582;-73
2022/08/07 01:37:20;;;;;;;;;6.00;6.00;;;;;;;;5099999;27;45325;-75
2022/08/07 01:39:46;;;;;;;;;4.67;4.67;;;;;;;;5100037;27;45307;-74
2022/08/07 01:42:12;;;;;;;;;6.00;6.00;;;;;;;;5099666;27;45331;-74
2022/08/07 01:44:38;;;;;;;;;4.67;4.00;;;;;;;;5099783;27;45345;-73
2022/08/07 01:47:03;;;;;;;;;5.67;5.00;;;;;;;;5099760;27;45385;-74
2022/08/07 01:49:29;;;;;;;;;7.00;7.00;;;;;;;;5100089;27;45390;-74
2022/08/07 01:51:55;;;;;;;;;5.00;5.00;;;;;;;;5099404;27;46601;-74
2022/08/07 01:54:22;;;;;;;;;8.00;5.00;;;;;;;;5099406;27;45305;-74
2022/08/07 01:57:16;;;;;;;;;10.33;5.00;;;;;;;;5099538;27;45531;-73
2022/08/07 01:59:44;;;;;;;;;7.00;6.67;;;;;;;;5036569;28;45537;-74
2022/08/07 02:02:12;;;;;;;;;6.33;4.67;;;;;;;;5036271;28;45634;-74
2022/08/07 02:04:46;;;;;;;;;5.67;5.00;;;;;;;;5036129;28;45509;-74
2022/08/07 02:07:13;;;;;;;;;8.00;5.00;;;;;;;;5036397;28;45477;-75
2022/08/07 02:09:40;;;;;;;;;6.00;5.00;;;;;;;;5036152;28;45677;-75
2022/08/07 02:12:15;;;;;;;;;6.00;6.00;;;;;;;;5036331;28;45448;-74
2022/08/07 02:14:52;;;;;;;;;7.33;5.00;;;;;;;;5036156;28;45300;-74
2022/08/07 02:17:18;;;;;;;;;8.00;6.00;;;;;;;;5036252;28;45405;-74
2022/08/07 02:19:46;;;;;;;;;8.00;8.00;;;;;;;;5036293;28;45315;-75
2022/08/07 02:22:12;;;;;;;;;7.00;7.00;;;;;;;;5036016;28;45560;-75
2022/08/07 02:24:38;;;;;;;;;6.00;5.67;;;;;;;;5035857;28;45609;-75
2022/08/07 02:27:04;;;;;;;;;5.00;2.00;;;;;;;;5036169;28;45278;-75
2022/08/07 02:29:30;;;;;;;;;8.33;5.00;;;;;;;;5036271;28;45402;-75
2022/08/07 02:31:56;;;;;;;;;7.33;7.33;;;;;;;;5035953;28;46145;-74
2022/08/07 02:34:21;;;;;;;;;7.00;5.33;;;;;;;;5035964;28;45546;-74
2022/08/07 02:36:48;;;;;;;;;4.00;3.00;;;;;;;;5085179;27;45286;-75
2022/08/07 02:39:14;;;;;;;;;6.67;6.33;;;;;;;;5098842;27;45548;-75
2022/08/07 02:41:40;;;;;;;;;9.33;7.00;;;;;;;;5098717;27;45390;-75
2022/08/07 02:44:05;;;;;;;;;7.67;7.33;;;;;;;;5098437;27;45294;-74
2022/08/07 02:46:32;;;;;;;;;8.00;6.67;;;;;;;;5098939;27;45369;-75
2022/08/07 02:48:58;;;;;;;;;8.00;7.00;;;;;;;;5099008;27;45387;-74
2022/08/07 02:51:24;;;;;;;;;10.00;8.33;;;;;;;;5098387;27;46213;-75
2022/08/07 02:53:53;;;;;;;;;9.00;7.00;;;;;;;;5098530;27;45359;-75
2022/08/07 02:56:19;;;;;;;;;6.33;6.33;;;;;;;;5098533;27;45363;-75
2022/08/07 02:58:45;;;;;;;;;7.33;7.00;;;;;;;;5098949;27;45504;-74
2022/08/07 03:01:11;;;;;;;;;7.00;7.00;;;;;;;;5098279;27;45304;-74
2022/08/07 03:03:37;;;;;;;;;9.00;7.33;;;;;;;;5098176;27;45502;-75
2022/08/07 03:06:03;;;;;;;;;9.00;7.00;;;;;;;;5098571;27;45459;-75
2022/08/07 03:08:28;;;;;;;;;18.33;10.00;;;;;;;;5098382;27;45437;-75
2022/08/07 03:10:55;;;;;;;;;9.33;9.33;;;;;;;;5098430;27;46277;-75
2022/08/07 03:13:20;;;;;;;;;10.67;8.33;;;;;;;;5098258;27;45251;-75
2022/08/07 03:15:46;;;;;;;;;9.67;8.33;;;;;;;;5098214;27;45351;-74
2022/08/07 03:18:12;;;;;;;;;9.33;9.33;;;;;;;;5098635;27;45356;-75
2022/08/07 03:20:38;;;;;;;;;10.33;10.33;;;;;;;;5097419;27;46613;-75
2022/08/07 03:23:04;;;;;;;;;10.33;7.33;;;;;;;;5098255;27;45345;-75
2022/08/07 03:25:31;;;;;;;;;10.67;8.67;;;;;;;;5098294;27;45335;-75
2022/08/07 03:27:58;;;;;;;;;12.67;9.33;;;;;;;;5098252;27;45431;-75
2022/08/07 03:30:23;;;;;;;;;29.00;22.33;;;;;;;;5096942;27;46638;-75
2022/08/07 03:32:51;;;;;;;;;11.67;10.67;;;;;;;;5097838;27;45306;-75
2022/08/07 03:35:18;;;;;;;;;10.33;9.00;;;;;;;;5098122;27;45223;-75
2022/08/07 03:37:48;;;;;;;;;11.33;9.67;;;;;;;;5098010;27;45214;-75
2022/08/07 03:40:14;;;;;;;;;13.67;12.33;;;;;;;;5097753;27;45494;-74
2022/08/07 03:42:39;;;;;;;;;11.33;10.67;;;;;;;;5097969;27;45383;-75
2022/08/07 03:45:05;;;;;;;;;10.67;9.33;;;;;;;;5098095;27;45215;-75
2022/08/07 03:47:31;;;;;;;;;12.33;10.67;;;;;;;;5098179;27;45318;-75
2022/08/07 03:49:57;;;;;;;;;12.67;11.67;;;;;;;;5097783;27;45218;-75
2022/08/07 03:52:24;;;;;;;;;7.67;6.00;;;;;;;;5097940;27;45286;-75
2022/08/07 03:54:49;;;;;;;;;11.67;9.33;;;;;;;;5097918;27;45425;-75
2022/08/07 03:57:15;;;;;;;;;10.00;10.00;;;;;;;;5098036;27;45464;-74
2022/08/07 03:59:40;;;;;;;;;13.00;11.33;;;;;;;;5097594;27;46517;-75
2022/08/07 04:02:06;;;;;;;;;15.33;12.67;;;;;;;;5097788;27;45439;-75
2022/08/07 04:04:32;;;;;;;;;10.33;9.00;;;;;;;;5097884;27;45560;-74
2022/08/07 04:06:57;;;;;;;;;17.33;11.00;;;;;;;;5097674;27;45413;-75
2022/08/07 04:09:23;;;;;;;;;15.33;14.33;;;;;;;;5097290;27;47133;-75
2022/08/07 04:11:48;;;;;;;;;13.00;13.00;;;;;;;;5097446;27;45433;-75
2022/08/07 04:14:14;;;;;;;;;13.00;12.33;;;;;;;;5097908;27;45491;-74
2022/08/07 04:16:39;;;;;;;;;14.00;13.33;;;;;;;;5097662;27;45266;-75
2022/08/07 04:19:06;;;;;;;;;11.33;11.33;;;;;;;;5097538;27;46266;-75
2022/08/07 04:21:31;;;;;;;;;13.00;11.33;;;;;;;;5097337;27;45399;-74
2022/08/07 04:23:57;;;;;;;;;14.33;13.00;;;;;;;;5097322;27;45374;-74
2022/08/07 04:26:22;;;;;;;;;9.67;9.33;;;;;;;;5097622;27;45525;-74
2022/08/07 04:28:47;;;;;;;;;14.00;12.00;;;;;;;;5097249;27;47488;-75
2022/08/07 04:31:13;;;;;;;;;12.00;9.67;;;;;;;;5097411;27;45248;-75
2022/08/07 04:33:38;;;;;;;;;17.00;13.00;;;;;;;;5100441;27;45271;-74
2022/08/07 04:36:04;;;;;;;;;11.67;11.67;;;;;;;;5100902;27;45343;-73
2022/08/07 04:38:29;;;;;;;;;18.00;14.33;;;;;;;;5100413;27;45684;-75
2022/08/07 04:40:55;;;;;;;;;18.67;13.33;;;;;;;;5100835;27;45321;-75
2022/08/07 04:43:24;;;;;;;;;12.67;11.67;;;;;;;;5100957;27;45300;-75
2022/08/07 04:46:08;;;;;;;;;19.67;13.00;;;;;;;;5101051;27;45518;-74
2022/08/07 04:48:40;;;;;;;;;14.67;14.00;;;;;;;;5100497;27;45388;-75
2022/08/07 04:51:18;;;;;;;;;13.33;12.67;;;;;;;;5100426;27;45349;-74
2022/08/07 04:54:03;;;;;;;;;18.67;16.33;;;;;;;;5100738;27;45413;-74
2022/08/07 04:56:34;;;;;;;;;17.33;13.00;;;;;;;;5037232;28;45338;-75
2022/08/07 04:59:09;;;;;;;;;19.33;16.67;;;;;;;;5037122;28;46685;-74
2022/08/07 05:01:48;;;;;;;;;14.67;14.00;;;;;;;;5037320;28;45322;-74
2022/08/07 05:04:30;;;;;;;;;18.67;18.33;;;;;;;;5037658;28;45306;-75
2022/08/07 05:07:00;;;;;;;;;18.33;14.67;;;;;;;;5037289;28;45338;-74
2022/08/07 05:09:29;;;;;;;;;18.33;15.33;;;;;;;;5036972;28;45619;-74
2022/08/07 05:11:54;;;;;;;;;21.33;16.00;;;;;;;;5037173;28;45452;-75
2022/08/07 05:14:37;;;;;;;;;20.67;15.67;;;;;;;;5037177;28;45550;-74
2022/08/07 05:17:04;;;;;;;;;19.00;17.00;;;;;;;;5037288;28;45354;-74
2022/08/07 05:19:33;;;;;;;;;22.00;17.67;;;;;;;;5036923;28;46642;-73
2022/08/07 05:21:59;;;;;;;;;18.33;17.33;;;;;;;;5037007;28;45365;-74
2022/08/07 05:24:25;;;;;;;;;21.00;16.33;;;;;;;;5037291;28;45435;-75
2022/08/07 05:26:52;;;;;;;;;16.67;14.67;;;;;;;;5037245;28;45397;-74
2022/08/07 05:29:18;;;;;;;;;14.67;12.67;;;;;;;;5036813;28;46391;-75
2022/08/07 05:31:45;;;;;;;;;22.00;18.00;;;;;;;;5036976;28;45354;-76
2022/08/07 05:34:11;;;;;;;;;24.33;15.67;;;;;;;;5083377;27;45396;-75
2022/08/07 05:36:39;;;;;;;;;21.33;18.00;;;;;;;;5099909;27;45360;-75
2022/08/07 05:39:05;;;;;;;;;23.67;20.00;;;;;;;;5099321;27;46508;-75
2022/08/07 05:41:31;;;;;;;;;18.33;16.33;;;;;;;;5099575;27;45196;-75
2022/08/07 05:43:57;;;;;;;;;19.00;19.00;;;;;;;;5099412;27;45333;-75
2022/08/07 05:46:22;;;;;;;;;21.67;18.33;;;;;;;;5099912;27;45222;-75
2022/08/07 05:48:49;;;;;;;;;29.00;20.00;;;;;;;;5099514;27;45419;-75
2022/08/07 05:51:14;;;;;;;;;17.33;15.00;;;;;;;;5099474;27;45239;-75
2022/08/07 05:53:40;;;;;;;;;24.00;19.00;;;;;;;;5099366;27;45300;-75
2022/08/07 05:56:07;;;;;;;;;22.00;20.00;;;;;;;;5099906;27;45272;-75
2022/08/07 05:58:34;;;;;;;;;16.67;16.00;;;;;;;;5099425;27;45524;-75
2022/08/07 06:00:59;;;;;;;;;17.33;15.33;;;;;;;;5099594;27;45375;-73
2022/08/07 06:03:26;;;;;;;;;19.33;16.33;;;;;;;;5099569;27;45359;-74
2022/08/07 06:05:52;;;;;;;;;15.67;15.67;;;;;;;;5099537;27;45233;-74
2022/08/07 06:08:17;;;;;;;;;21.00;14.67;;;;;;;;5099169;27;46316;-73
2022/08/07 06:10:43;;;;;;;;;16.00;15.00;;;;;;;;5099084;27;45420;-74
2022/08/07 06:13:09;;;;;;;;;16.33;15.67;;;;;;;;5099591;27;45229;-74
2022/08/07 06:15:34;;;;;;;;;13.33;12.67;;;;;;;;5099234;27;45371;-75
2022/08/07 06:18:01;;;;;;;;;15.00;14.00;;;;;;;;5098962;27;48463;-74
2022/08/07 06:20:26;;;;;;;;;15.00;14.67;;;;;;;;5099398;27;45348;-76
2022/08/07 06:22:52;;;;;;;;;20.00;20.00;;;;;;;;5099129;27;45291;-74
2022/08/07 06:25:18;;;;;;;;;18.67;16.33;;;;;;;;5099491;27;45471;-75
2022/08/07 06:27:43;;;;;;;;;14.67;13.33;;;;;;;;5098859;27;45390;-74
2022/08/07 06:30:09;;;;;;;;;18.67;14.33;;;;;;;;5098804;27;45248;-74
2022/08/07 06:32:34;;;;;;;;;16.67;14.00;;;;;;;;5099313;27;45371;-73
2022/08/07 06:34:59;;;;;;;;;16.33;14.67;;;;;;;;5099229;27;45453;-75
2022/08/07 06:37:24;;;;;;;;;15.00;13.00;;;;;;;;5098748;27;46274;-74
2022/08/07 06:39:52;;;;;;;;;12.00;11.33;;;;;;;;5098906;27;45454;-75
2022/08/07 06:42:19;;;;;;;;;11.67;10.33;;;;;;;;5099125;27;45334;-74
2022/08/07 06:44:46;;;;;;;;;13.33;13.00;;;;;;;;5080821;27;45277;-74
2022/08/07 06:47:11;;;;;;;;;11.33;10.33;;;;;;;;5098378;27;45525;-74
2022/08/07 06:49:37;;;;;;;;;12.00;12.00;;;;;;;;5098524;27;45289;-73
2022/08/07 06:52:02;;;;;;;;;12.00;11.00;;;;;;;;5098862;27;45262;-75
2022/08/07 06:54:29;;;;;;;;;11.33;11.33;;;;;;;;5098732;27;45503;-74
2022/08/07 06:56:54;;;;;;;;;9.67;9.67;;;;;;;;5097453;27;46738;-74
2022/08/07 06:59:22;;;;;;;;;12.67;10.00;;;;;;;;5098505;27;45287;-73
2022/08/07 07:01:48;;;;;;;;;10.67;9.00;;;;;;;;5098701;27;45490;-75
2022/08/07 07:04:13;;;;;;;;;11.33;10.33;;;;;;;;5098684;27;45209;-74
2022/08/07 07:06:39;;;;;;;;;9.33;9.00;;;;;;;;5098130;27;46258;-74
2022/08/07 07:09:19;;;;;;;;;13.67;10.67;;;;;;;;5079879;27;45227;-74
2022/08/07 07:11:52;;;;;;;;;10.33;8.00;;;;;;;;5080179;27;45400;-73
2022/08/07 07:14:20;;;;;;;;;8.00;8.00;;;;;;;;5098418;27;45442;-74
2022/08/07 07:16:46;;;;;;;;;13.67;10.67;;;;;;;;5098093;27;45567;-73
2022/08/07 07:19:14;;;;;;;;;10.00;7.33;;;;;;;;5098056;27;45280;-76
2022/08/07 07:21:41;;;;;;;;;12.67;9.00;;;;;;;;5098238;27;45459;-74
2022/08/07 07:24:09;;;;;;;;;8.00;8.00;;;;;;;;5098492;27;45350;-73
2022/08/07 07:26:35;;;;;;;;;7.67;6.67;;;;;;;;5098039;27;46209;-74
2022/08/07 07:29:13;;;;;;;;;12.67;8.33;;;;;;;;5097928;27;45453;-75
2022/08/07 07:31:42;;;;;;;;;7.00;7.00;;;;;;;;5098103;27;45175;-73
2022/08/07 07:34:09;;;;;;;;;10.33;9.00;;;;;;;;5098393;27;45413;-74
2022/08/07 07:36:36;;;;;;;;;8.00;8.00;;;;;;;;5097381;27;45690;-74
2022/08/07 07:39:02;;;;;;;;;9.00;7.67;;;;;;;;5098125;27;45262;-74
2022/08/07 07:41:28;;;;;;;;;7.33;7.33;;;;;;;;5098125;27;45174;-75
2022/08/07 07:43:54;;;;;;;;;8.00;7.33;;;;;;;;5098197;27;45372;-74
2022/08/07 07:46:22;;;;;;;;;9.00;7.33;;;;;;;;5079544;27;47323;-77
2022/08/07 07:48:49;;;;;;;;;6.67;6.67;;;;;;;;5097056;27;45318;-75
2022/08/07 07:51:17;;;;;;;;;10.33;10.33;;;;;;;;5097811;27;45373;-76
2022/08/07 07:53:44;;;;;;;;;8.00;7.00;;;;;;;;5098152;27;45530;-75
2022/08/07 07:56:11;;;;;;;;;7.67;6.67;;;;;;;;5097554;27;45423;-75
2022/08/07 07:58:37;;;;;;;;;10.00;9.00;;;;;;;;5097809;27;45451;-74
2022/08/07 08:01:03;;;;;;;;;8.00;8.00;;;;;;;;5098090;27;45353;-75
2022/08/07 08:03:30;;;;;;;;;7.67;6.00;;;;;;;;5097603;27;45258;-76
2022/08/07 08:05:55;;;;;;;;;11.00;9.67;;;;;;;;5097305;27;47470;-74
2022/08/07 08:08:25;;;;;;;;;12.33;10.67;;;;;;;;5100195;27;45244;-76
2022/08/07 08:10:50;;;;;;;;;7.00;7.00;;;;;;;;5101243;27;45387;-75
2022/08/07 08:13:16;;;;;;;;;6.67;6.00;;;;;;;;5101656;27;45363;-74
2022/08/07 08:15:42;;;;;;;;;6.67;6.33;;;;;;;;5100789;27;47384;-74
2022/08/07 08:18:08;;;;;;;;;7.33;7.33;;;;;;;;5101046;27;45464;-74
2022/08/07 08:20:34;;;;;;;;;9.33;9.33;;;;;;;;5101218;27;45354;-75
2022/08/07 08:28:31;;;;;;;;;5.00;5.00;;;;;;;;5100901;27;45479;-76
2022/08/07 08:30:58;;;;;;;;;5.67;4.67;;;;;;;;5101045;27;45262;-76
2022/08/07 08:33:26;;;;;;;;;8.00;5.00;;;;;;;;5101016;27;45560;-76
2022/08/07 08:35:54;;;;;;;;;5.33;5.00;;;;;;;;5100679;27;45376;-76
2022/08/07 08:38:21;;;;;;;;;3.00;3.00;;;;;;;;5100906;27;45262;-76
2022/08/07 08:40:55;;;;;;;;;4.67;4.67;;;;;;;;5100861;27;45218;-76
2022/08/07 08:43:24;;;;;;;;;5.67;5.00;;;;;;;;5100770;27;45371;-75
2022/08/07 08:46:11;;;;;;;;;6.00;4.00;;;;;;;;5100439;27;46390;-75
2022/08/07 08:48:55;;;;;;;;;4.00;4.00;;;;;;;;5100500;27;45340;-74
2022/08/07 08:51:26;;;;;;;;;4.00;4.00;;;;;;;;5082389;27;45341;-76
2022/08/07 08:54:11;;;;;;;;;7.00;5.00;;;;;;;;5100727;27;45781;-74
2022/08/07 08:56:41;;;;;;;;;6.00;6.00;;;;;;;;5036760;28;47093;-75
2022/08/07 08:59:06;;;;;;;;;4.00;3.33;;;;;;;;5037442;28;45405;-74
2022/08/07 09:01:43;;;;;;;;;10.00;5.33;;;;;;;;5037571;28;45464;-75
2022/08/07 09:04:23;;;;;;;;;4.00;4.00;;;;;;;;5037711;28;45436;-76
2022/08/07 09:06:48;;;;;;;;;5.00;5.00;;;;;;;;5037071;28;46320;-75
2022/08/07 09:09:28;;;;;;;;;4.00;4.00;;;;;;;;5037300;28;45781;-76
2022/08/07 09:12:12;;;;;;;;;5.33;4.67;;;;;;;;5037310;28;45534;-76
2022/08/07 09:14:37;;;;;;;;;4.33;4.33;;;;;;;;5037368;28;45418;-74
2022/08/07 09:17:10;;;;;;;;;8.00;7.00;;;;;;;;5037175;28;45471;-75
2022/08/07 09:19:55;;;;;;;;;5.00;4.00;;;;;;;;5036370;28;45570;-75
2022/08/07 09:22:28;;;;;;;;;4.00;4.00;;;;;;;;5037359;28;45626;-76
2022/08/07 09:25:20;;;;;;;;;5.00;4.00;;;;;;;;5037315;28;45225;-75
2022/08/07 09:28:03;;;;;;;;;5.00;5.00;;;;;;;;5013902;28;45509;-74
2022/08/07 09:30:41;;;;;;;;;6.00;6.00;;;;;;;;5036871;28;45404;-74
2022/08/07 09:33:25;;;;;;;;;6.33;6.00;;;;;;;;5052163;27;45472;-77
2022/08/07 09:35:57;;;;;;;;;8.00;3.33;;;;;;;;5100057;27;45369;-74
2022/08/07 09:38:28;;;;;;;;;5.33;4.33;;;;;;;;5099861;27;46178;-77
2022/08/07 09:41:06;;;;;;;;;11.67;6.67;;;;;;;;5099846;27;45317;-73
2022/08/07 09:43:50;;;;;;;;;6.33;4.00;;;;;;;;5099953;27;45273;-75
2022/08/07 09:46:31;;;;;;;;;3.33;3.33;;;;;;;;5099918;27;45392;-76
2022/08/07 09:48:56;;;;;;;;;6.33;4.00;;;;;;;;5099590;27;45486;-76
2022/08/07 09:51:27;;;;;;;;;6.67;6.67;;;;;;;;5099622;27;45519;-76
2022/08/07 09:53:56;;;;;;;;;5.00;5.00;;;;;;;;5099871;27;45406;-77
2022/08/07 09:56:24;;;;;;;;;5.00;3.00;;;;;;;;5099725;27;45146;-76
2022/08/07 09:58:56;;;;;;;;;4.00;2.00;;;;;;;;5099456;27;45583;-76
2022/08/07 10:01:33;;;;;;;;;4.33;3.00;;;;;;;;5099347;27;45264;-77
2022/08/07 10:04:17;;;;;;;;;4.33;4.00;;;;;;;;5099377;27;45293;-76
2022/08/07 10:06:42;;;;;;;;;4.00;4.00;;;;;;;;5099334;27;45333;-77
2022/08/07 10:09:07;;;;;;;;;1.00;0.67;;;;;;;;5099402;27;45221;-77
2022/08/07 10:11:50;;;;;;;;;1.67;1.67;;;;;;;;5099300;27;45508;-77
2022/08/07 10:14:34;;;;;;;;;1.00;1.00;;;;;;;;5099388;27;45219;-75
2022/08/07 10:17:17;;;;;;;;;5.00;2.67;;;;;;;;5099183;27;45457;-76
2022/08/07 10:20:01;;;;;;;;;2.33;2.33;;;;;;;;5080279;27;45918;-75
2022/08/07 10:22:45;;;;;;;;;1.33;1.33;;;;;;;;5099202;27;45411;-76
2022/08/07 10:25:13;;;;;;;;;5.25;3.75;;;;;;;;5099351;27;45462;-75
2022/08/07 10:27:47;;;;;;;;;3.50;1.50;;;;;;;;5099199;27;45326;-75
2022/08/07 10:30:23;;;;;;;;;1.50;1.50;;;;;;;;5098743;27;46773;-77
2022/08/07 10:33:07;;;;;;;;;3.00;3.00;;;;;;;;5098875;27;45387;-77
2022/08/07 10:35:32;;;;;;;;;2.00;2.00;;;;;;;;5099138;27;45307;-79
2022/08/07 10:37:57;;;;;;;;;5.00;2.50;;;;;;;;5099143;27;45288;-79
2022/08/07 10:40:34;;;;;;;;;1.25;1.25;;;;;;;;5098826;27;46705;-80
2022/08/07 10:43:22;;;;;;;;;1.75;1.75;;;;;;;;5099011;27;45320;-76
2022/08/07 10:45:50;;;;;;;;;4.75;3.00;;;;;;;;5098957;27;45245;-78
2022/08/07 10:48:22;;;;;;;;;3.00;1.00;;;;;;;;5098912;27;45415;-76
2022/08/07 10:50:59;;;;;;;;;2.00;2.00;;;;;;;;5098283;27;46209;-79
2022/08/07 10:53:26;;;;;;;;;1.50;1.50;;;;;;;;5098369;27;45427;-77
2022/08/07 10:56:10;;;;;;;;;1.25;1.25;;;;;;;;5098629;27;45460;-75
2022/08/07 10:58:38;;;;;;;;;2.00;0.50;;;;;;;;5098445;27;45430;-78
2022/08/07 11:01:15;;;;;;;;;2.25;1.00;;;;;;;;5097999;27;45947;-78
2022/08/07 11:03:44;;;;;;;;;1.00;1.00;;;;;;;;5098028;27;45487;-75
2022/08/07 11:06:12;;;;;;;;;0.75;0.75;;;;;;;;5098410;27;45286;-76
2022/08/07 11:08:56;;;;;;;;;1.00;1.00;;;;;;;;5098469;27;45460;-77
2022/08/07 11:11:21;;;;;;;;;4.75;4.00;;;;;;;;5098048;27;45465;-77
2022/08/07 11:14:13;;;;;;;;;0.67;0.67;;;;;;;;5098247;27;45495;-77
2022/08/07 11:16:44;;;;;;;;;1.33;0.67;;;;;;;;5095224;27;45314;-74
2022/08/07 11:19:18;;;;;;;;;4.33;2.67;;;;;;;;5098638;27;45411;-77
2022/08/07 11:21:57;;;;;;;;;1.00;1.00;;;;;;;;5098165;27;46060;-75
2022/08/07 11:24:37;;;;;;;;;0.33;0.33;;;;;;;;5098188;27;45474;-75
2022/08/07 11:27:20;;;;;;;;;1.33;1.33;;;;;;;;5098067;27;45454;-76
2022/08/07 11:29:45;;;;;;;;;1.00;1.00;;;;;;;;5098182;27;45234;-75
2022/08/07 11:32:19;;;;;;;;;1.67;0.33;;;;;;;;5098186;27;45645;-76
2022/08/07 11:34:52;;;;;;;;;2.67;0.67;;;;;;;;5098178;27;45392;-76
2022/08/07 11:37:29;;;;;;;;;2.00;2.00;;;;;;;;5098102;27;45220;-74
2022/08/07 11:40:09;;;;;;;;;1.00;1.00;;;;;;;;5098268;27;45347;-75
2022/08/07 11:42:45;;;;;;;;;1.00;1.00;;;;;;;;5080801;27;46311;-76
2022/08/07 11:45:17;;;;;;;;;1.00;1.00;;;;;;;;5101601;27;45303;-74
2022/08/07 11:47:54;;;;;;;;;1.00;1.00;;;;;;;;5101646;27;45426;-76
2022/08/07 11:50:36;;;;;;;;;2.33;1.00;;;;;;;;5101759;27;45391;-74
2022/08/07 11:53:20;;;;;;;;;3.00;2.00;;;;;;;;5101469;27;46263;-73
2022/08/07 11:56:02;;;;;;;;;2.00;2.00;;;;;;;;5101365;27;45221;-74
2022/08/07 11:58:27;;;;;;;;;1.67;1.00;;;;;;;;5101463;27;45320;-76
2022/08/07 12:01:08;;;;;;;;;2.00;1.00;;;;;;;;5101702;27;45154;-75
2022/08/07 12:03:39;;;;;;;;;2.00;1.00;;;;;;;;5101249;27;46578;-76
2022/08/07 12:06:23;;;;;;;;;1.33;1.33;;;;;;;;5101263;27;45835;-76
2022/08/07 12:09:13;;;;;;;;;2.33;1.00;;;;;;;;5101513;27;45229;-75
2022/08/07 12:11:58;;;;;;;;;1.00;1.00;;;;;;;;5075237;27;45500;-76
2022/08/07 12:14:26;;;;;;;;;3.33;2.00;;;;;;;;5037703;28;46421;-76
2022/08/07 12:17:04;;;;;;;;;1.33;1.33;;;;;;;;5037808;28;45339;-76
2022/08/07 12:19:44;;;;;;;;;5.67;2.33;;;;;;;;5038080;28;45232;-73
2022/08/07 12:22:22;;;;;;;;;3.00;1.00;;;;;;;;5038323;28;45458;-76
2022/08/07 12:27:43;;;;;;;;;1.67;1.67;;;;;;;;5037555;28;45531;-77
2022/08/07 12:30:08;;;;;;;;;2.00;2.00;;;;;;;;5038129;28;45381;-77
2022/08/07 12:32:33;;;;;;;;;1.33;1.33;;;;;;;;5038079;28;45381;-75
2022/08/07 12:35:01;;;;;;;;;1.33;1.33;;;;;;;;5037775;28;45374;-76
2022/08/07 12:37:27;;;;;;;;;1.00;1.00;;;;;;;;5037595;28;45462;-77
2022/08/07 12:39:55;;;;;;;;;1.00;1.00;;;;;;;;5037688;28;45481;-73
2022/08/07 12:42:23;;;;;;;;;3.67;1.67;;;;;;;;5037760;28;45467;-77
2022/08/07 12:44:49;;;;;;;;;1.00;1.00;;;;;;;;5037426;28;46413;-73
2022/08/07 12:47:17;;;;;;;;;2.00;2.00;;;;;;;;5037783;28;45345;-76
2022/08/07 12:49:52;;;;;;;;;1.67;1.67;;;;;;;;5037894;28;45338;-76
2022/08/07 12:52:38;;;;;;;;;1.00;1.00;;;;;;;;5089650;27;45914;-76
2022/08/07 12:55:08;;;;;;;;;1.00;1.00;;;;;;;;5087590;27;45363;-75
2022/08/07 12:57:35;;;;;;;;;2.00;2.00;;;;;;;;5100005;27;45420;-76
2022/08/07 13:00:03;;;;;;;;;2.00;2.00;;;;;;;;5100670;27;45474;-74
2022/08/07 13:02:47;;;;;;;;;1.67;1.67;;;;;;;;5100602;27;45504;-75
2022/08/07 13:05:13;;;;;;;;;1.00;1.00;;;;;;;;5100375;27;45942;-74
2022/08/07 13:07:41;;;;;;;;;2.33;1.33;;;;;;;;5100105;27;45350;-76
2022/08/07 13:10:09;;;;;;;;;1.67;1.67;;;;;;;;5100668;27;45284;-76
2022/08/07 13:12:40;;;;;;;;;3.00;1.33;;;;;;;;5100578;27;45494;-74
2022/08/07 13:15:14;;;;;;;;;3.00;1.33;;;;;;;;5100235;27;45456;-75
2022/08/07 13:17:57;;;;;;;;;2.00;2.00;;;;;;;;5100122;27;45356;-75
2022/08/07 13:20:40;;;;;;;;;2.00;1.00;;;;;;;;5100421;27;45455;-75
2022/08/07 13:23:05;;;;;;;;;2.00;0.67;;;;;;;;5100394;27;45842;-76
2022/08/07 13:25:33;;;;;;;;;1.00;1.00;;;;;;;;5100203;27;46410;-76
2022/08/07 13:28:02;;;;;;;;;1.00;1.00;;;;;;;;5099891;27;46122;-73
2022/08/07 13:30:28;;;;;;;;;1.00;1.00;;;;;;;;5100175;27;45371;-77
2022/08/07 13:32:58;;;;;;;;;1.67;1.67;;;;;;;;5100244;27;45345;-77
2022/08/07 13:35:42;;;;;;;;;1.00;1.00;;;;;;;;5099761;27;46196;-76
2022/08/07 13:38:12;;;;;;;;;0.00;0.00;;;;;;;;5099876;27;45331;-76
2022/08/07 13:41:00;;;;;;;;;1.00;1.00;;;;;;;;5099861;27;45221;-76
2022/08/07 13:43:26;;;;;;;;;3.00;1.00;;;;;;;;5099798;27;45349;-76
2022/08/07 13:45:53;;;;;;;;;2.00;2.00;;;;;;;;5099717;27;45388;-77
2022/08/07 13:48:20;;;;;;;;;1.00;1.00;;;;;;;;5099757;27;45368;-77
2022/08/07 13:50:47;;;;;;;;;0.00;0.00;;;;;;;;5099803;27;45255;-75
2022/08/07 13:53:18;;;;;;;;;0.33;0.33;;;;;;;;5099908;27;45163;-73
2022/08/07 13:55:45;;;;;;;;;1.00;1.00;;;;;;;;5099342;27;46618;-76
2022/08/07 14:00:58;;;;;;;;;2.00;2.00;;;;;;;;5099801;27;45344;-76
2022/08/07 14:03:24;;;;;;;;;0.67;0.67;;;;;;;;5099623;27;45214;-77
2022/08/07 14:05:51;;;;;;;;;0.00;0.00;;;;;;;;5098444;27;46126;-75
2022/08/07 14:08:16;;;;;;;;;0.00;0.00;;;;;;;;5099658;27;45325;-77
2022/08/07 14:10:43;;;;;;;;;1.33;0.00;;;;;;;;5099558;27;45251;-76
2022/08/07 14:13:12;;;;;;;;;4.00;1.00;;;;;;;;5099713;27;45381;-76
2022/08/07 14:15:38;;;;;;;;;4.67;2.33;;;;;;;;5099045;27;45593;-72
2022/08/07 14:18:07;;;;;;;;;3.00;1.00;;;;;;;;5099277;27;45252;-77
2022/08/07 14:20:35;;;;;;;;;1.00;1.00;;;;;;;;5099551;27;45400;-76
2022/08/07 14:23:02;;;;;;;;;3.33;3.33;;;;;;;;5099250;27;45271;-75
2022/08/07 14:25:31;;;;;;;;;1.00;1.00;;;;;;;;5099021;27;45462;-73
2022/08/07 14:27:58;;;;;;;;;2.00;1.00;;;;;;;;5098408;27;45457;-74
2022/08/07 14:30:24;;;;;;;;;3.00;2.00;;;;;;;;5099143;27;45332;-75
2022/08/07 14:32:53;;;;;;;;;2.00;2.00;;;;;;;;5099240;27;45502;-77
2022/08/07 14:35:23;;;;;;;;;3.00;1.00;;;;;;;;5098658;27;45752;-75
2022/08/07 14:37:52;;;;;;;;;2.00;1.00;;;;;;;;5098653;27;45381;-76
2022/08/07 14:40:18;;;;;;;;;2.00;1.00;;;;;;;;5098958;27;45281;-77
2022/08/07 14:42:44;;;;;;;;;1.00;1.00;;;;;;;;5099156;27;45187;-76
2022/08/07 14:45:11;;;;;;;;;1.67;1.67;;;;;;;;5098358;27;46301;-75
2022/08/07 14:47:38;;;;;;;;;1.00;1.00;;;;;;;;5098702;27;45387;-76
2022/08/07 14:50:05;;;;;;;;;2.00;2.00;;;;;;;;5098985;27;45409;-76
2022/08/07 14:52:32;;;;;;;;;2.00;2.00;;;;;;;;5098695;27;45487;-77
2022/08/07 14:54:59;;;;;;;;;2.33;1.67;;;;;;;;5098654;27;45520;-73
2022/08/07 14:57:25;;;;;;;;;1.00;1.00;;;;;;;;5098410;27;45354;-74
2022/08/07 14:59:51;;;;;;;;;2.00;2.00;;;;;;;;5098941;27;45412;-76